Time;durP1;ratioP1;P1;durP2;ratioP2;P2;SDS_P1;SDS_P2;PMS_P1;PMS_P2;Temp;Humidity;BMP_temperature;BMP_pressure;BME280_temperature;BME280_humidity;BME280_pressure;Samples;Min_cycle;Max_cycle;Signal;HPM_P1;HPM_P2
2023/12/27 00:03:14;;;;;;;1.27;0.70;;;8.70;99.90;;;6.66;100.00;100386.81;10454624;27;97720;-87
2023/12/27 00:08:17;;;;;;;2.77;0.90;;;8.60;99.90;;;6.61;100.00;100412.78;10447286;27;96550;-85
2023/12/27 00:13:21;;;;;;;1.67;0.80;;;8.40;99.90;;;6.43;100.00;100402.06;10447008;27;96829;-86
2023/12/27 00:18:25;;;;;;;0.87;0.60;;;8.30;99.90;;;6.38;100.00;100409.53;10461928;27;96638;-87
2023/12/27 00:23:28;;;;;;;1.57;0.53;;;8.20;99.90;;;6.28;100.00;100419.22;10450213;27;97895;-87
2023/12/27 00:28:32;;;;;;;1.43;0.40;;;8.20;99.90;;;6.14;100.00;100432.81;10449891;27;96801;-86
2023/12/27 00:33:37;;;;;;;1.50;0.57;;;8.10;99.90;;;6.13;100.00;100436.41;10440937;27;98217;-88
2023/12/27 00:38:40;;;;;;;1.53;0.80;;;8.00;99.90;;;6.15;100.00;100451.13;10445973;27;96525;-89
2023/12/27 00:43:44;;;;;;;3.73;0.90;;;8.00;99.90;;;6.12;100.00;100453.22;10444191;27;96567;-88
2023/12/27 00:48:47;;;;;;;1.63;0.87;;;8.00;99.90;;;6.11;100.00;100460.28;10449233;27;96657;-88
2023/12/27 00:53:51;;;;;;;1.00;0.50;;;8.00;99.90;;;6.03;100.00;100462.75;10456076;27;96607;-89
2023/12/27 00:58:55;;;;;;;1.30;0.60;;;7.90;99.90;;;5.90;100.00;100467.38;10466696;27;98495;-89
2023/12/27 01:03:58;;;;;;;1.10;0.67;;;7.80;99.90;;;5.87;100.00;100488.72;10461414;27;96696;-89
2023/12/27 01:09:03;;;;;;;1.87;0.77;;;7.70;99.90;;;6.05;100.00;100496.91;10448684;27;97812;-89
2023/12/27 01:14:06;;;;;;;1.87;0.97;;;7.80;99.90;;;6.22;100.00;100506.84;10469656;27;96644;-86
2023/12/27 01:19:11;;;;;;;1.80;0.87;;;8.00;99.90;;;6.32;100.00;100513.03;10470076;27;97556;-86
2023/12/27 01:24:15;;;;;;;4.70;1.40;;;8.10;99.90;;;6.32;100.00;100525.38;10428521;27;97536;-87
2023/12/27 01:29:18;;;;;;;1.57;0.83;;;8.10;99.90;;;6.36;100.00;100521.53;10476627;27;96581;-86
2023/12/27 01:34:22;;;;;;;1.93;0.87;;;8.10;99.90;;;6.45;100.00;100515.44;10466120;27;96616;-86
2023/12/27 01:39:26;;;;;;;1.50;0.73;;;8.20;99.90;;;6.56;100.00;100530.34;10450067;27;96585;-85
2023/12/27 01:44:30;;;;;;;1.27;0.50;;;8.30;99.90;;;6.59;100.00;100533.53;10443541;27;97740;-88
2023/12/27 01:49:34;;;;;;;2.67;0.70;;;8.30;99.90;;;6.56;100.00;100523.25;10452323;27;98097;-86
2023/12/27 01:54:38;;;;;;;2.43;0.70;;;8.30;99.90;;;6.49;100.00;100527.41;10469033;27;96654;-86
2023/12/27 01:59:42;;;;;;;1.00;0.60;;;8.30;99.90;;;6.50;100.00;100529.06;10446246;27;97868;-86
2023/12/27 02:04:45;;;;;;;1.27;0.60;;;8.30;99.90;;;6.47;100.00;100531.94;10458389;27;96966;-88
2023/12/27 02:09:50;;;;;;;2.50;0.77;;;8.20;99.90;;;6.37;100.00;100539.03;10454770;27;97117;-88
2023/12/27 02:14:53;;;;;;;1.77;0.70;;;8.20;99.90;;;6.34;100.00;100539.28;10450712;27;96615;-88
2023/12/27 02:19:58;;;;;;;3.43;1.03;;;8.10;99.90;;;6.21;100.00;100542.13;10469676;27;97725;-88
2023/12/27 02:25:04;;;;;;;2.57;1.00;;;8.00;99.90;;;6.12;100.00;100545.56;10431586;27;97942;-88
2023/12/27 02:30:15;;;;;;;4.13;0.80;;;7.90;99.90;;;6.07;100.00;100548.59;10452260;27;96678;-88
2023/12/27 02:35:19;;;;;;;2.70;0.90;;;7.90;99.90;;;5.95;100.00;100547.00;10472662;27;97650;-89
2023/12/27 02:40:22;;;;;;;3.07;0.70;;;7.80;99.90;;;5.93;100.00;100550.72;10461063;27;96639;-88
2023/12/27 02:45:26;;;;;;;2.73;0.70;;;7.70;99.90;;;5.96;100.00;100539.91;10479585;27;97766;-88
2023/12/27 02:50:29;;;;;;;2.50;0.60;;;7.80;99.90;;;5.90;100.00;100557.91;10459584;27;96722;-86
2023/12/27 02:55:33;;;;;;;1.73;0.70;;;7.70;99.90;;;5.85;100.00;100548.69;10466630;27;96956;-86
2023/12/27 03:00:37;;;;;;;1.60;0.60;;;7.60;99.90;;;5.85;100.00;100553.97;10461386;27;96903;-87
2023/12/27 03:05:42;;;;;;;2.80;0.87;;;7.70;99.90;;;5.95;100.00;100564.63;10468513;27;96623;-87
2023/12/27 03:10:45;;;;;;;1.30;0.40;;;7.70;99.90;;;6.13;100.00;100563.06;10457229;27;96920;-86
2023/12/27 03:15:49;;;;;;;0.50;0.20;;;7.90;99.90;;;6.24;100.00;100554.22;10461601;27;96683;-86
2023/12/27 03:20:53;;;;;;;2.03;0.53;;;8.00;99.90;;;6.35;100.00;100567.34;10454095;27;98087;-87
2023/12/27 03:25:57;;;;;;;1.50;0.50;;;8.10;99.90;;;6.44;99.22;100577.94;10467594;27;96676;-86
2023/12/27 03:31:00;;;;;;;0.70;0.43;;;8.20;99.90;;;6.47;100.00;100571.56;10458032;27;96736;-87
2023/12/27 03:36:05;;;;;;;0.83;0.40;;;8.30;99.90;;;6.47;98.77;100582.13;10447971;27;97400;-90
2023/12/27 03:41:09;;;;;;;2.20;0.50;;;8.30;99.90;;;6.48;96.91;100588.22;10466108;27;96841;-88
2023/12/27 03:46:12;;;;;;;0.73;0.40;;;8.30;99.90;;;6.42;97.83;100585.19;10448422;27;96584;-89
2023/12/27 03:51:22;;;;;;;1.00;0.40;;;8.20;99.90;;;6.40;98.57;100587.09;10472802;27;96921;-90
2023/12/27 03:56:25;;;;;;;1.07;0.43;;;8.20;99.90;;;6.43;98.38;100601.84;10447273;27;97287;-86
2023/12/27 04:01:29;;;;;;;0.97;0.50;;;8.20;99.90;;;6.38;99.04;100604.03;10465244;27;98401;-89
2023/12/27 04:06:33;;;;;;;1.73;0.40;;;8.20;99.90;;;6.25;98.13;100595.50;10475913;27;96809;-87
2023/12/27 04:11:45;;;;;;;1.33;0.60;;;8.10;99.90;;;6.10;99.59;100606.38;10454578;27;96706;-87
2023/12/27 04:16:48;;;;;;;;;;;8.00;99.90;;;6.05;100.00;100613.00;10452185;27;96741;-88
2023/12/27 04:21:51;;;;;;;2.57;0.60;;;7.90;99.90;;;5.90;100.00;100620.38;10472693;27;96607;-88
2023/12/27 04:26:55;;;;;;;1.07;0.50;;;7.80;99.90;;;5.81;100.00;100623.75;10439011;27;96931;-88
2023/12/27 04:31:59;;;;;;;5.47;1.17;;;7.70;99.90;;;5.81;100.00;100621.94;10469427;27;97974;-88
2023/12/27 04:37:03;;;;;;;1.83;0.50;;;7.60;99.90;;;5.83;100.00;100624.47;10465480;27;97640;-89
2023/12/27 04:42:09;;;;;;;1.57;0.40;;;7.60;99.90;;;5.81;100.00;100621.94;10453464;27;96561;-89
2023/12/27 04:47:13;;;;;;;0.77;0.37;;;7.60;99.90;;;5.78;100.00;100639.84;10457439;27;96884;-89
2023/12/27 04:52:17;;;;;;;2.20;0.50;;;7.60;99.90;;;5.80;98.62;100643.19;10478979;27;96727;-90
2023/12/27 04:57:20;;;;;;;0.80;0.40;;;7.60;99.90;;;5.82;98.68;100643.91;10463428;27;97463;-90
2023/12/27 05:02:24;;;;;;;1.80;0.50;;;7.60;99.90;;;5.80;97.92;100648.47;10453927;27;96631;-90
2023/12/27 05:07:27;;;;;;;1.00;0.50;;;7.60;99.90;;;5.76;98.22;100654.97;10476791;27;97697;-89
2023/12/27 05:12:31;;;;;;;0.80;0.50;;;7.60;99.90;;;5.70;98.69;100658.94;10442823;27;97947;-89
2023/12/27 05:17:34;;;;;;;1.60;0.30;;;7.50;99.90;;;5.69;97.10;100670.44;10470788;27;98302;-89
2023/12/27 05:22:39;;;;;;;3.20;0.87;;;7.50;99.90;;;5.60;97.69;100669.38;10466844;27;96574;-89
2023/12/27 05:27:43;;;;;;;1.30;0.50;;;7.40;99.90;;;5.48;98.29;100694.09;10465783;27;97259;-89
2023/12/27 05:32:46;;;;;;;2.20;0.57;;;7.30;99.90;;;5.32;99.59;100696.28;10457794;27;97506;-88
2023/12/27 05:37:50;;;;;;;2.23;1.13;;;7.20;99.90;;;5.18;99.20;100718.47;10467379;27;96533;-88
2023/12/27 05:42:54;;;;;;;3.07;0.60;;;7.10;99.90;;;5.05;100.00;100709.84;10441923;27;96566;-89
2023/12/27 05:47:58;;;;;;;2.13;0.93;;;6.90;99.90;;;5.02;100.00;100723.25;10456762;27;96556;-88
2023/12/27 05:53:02;;;;;;;2.03;0.83;;;6.90;99.90;;;4.94;100.00;100731.75;10460842;27;98147;-88
2023/12/27 05:58:05;;;;;;;1.77;0.83;;;6.80;99.90;;;4.99;100.00;100734.03;10455855;27;98147;-89
2023/12/27 06:03:10;;;;;;;2.10;0.60;;;6.80;99.90;;;5.01;100.00;100748.75;10437247;27;97937;-88
2023/12/27 06:08:15;;;;;;;1.60;0.50;;;6.80;99.90;;;4.97;100.00;100752.56;10457753;27;97555;-86
2023/12/27 06:13:19;;;;;;;3.23;1.43;;;6.80;99.90;;;4.92;100.00;100760.00;10463408;27;97841;-84
2023/12/27 06:18:22;;;;;;;3.40;1.00;;;6.70;99.90;;;4.83;100.00;100758.91;10467256;27;96624;-85
2023/12/27 06:23:25;;;;;;;6.17;2.13;;;6.70;99.90;;;4.77;100.00;100784.84;10458273;27;96593;-85
2023/12/27 06:28:29;;;;;;;2.97;1.10;;;6.60;99.90;;;4.76;100.00;100788.44;10463854;27;96715;-87
2023/12/27 06:33:32;;;;;;;3.47;0.83;;;6.60;99.90;;;4.75;100.00;100803.41;10488080;27;96613;-86
2023/12/27 06:38:35;;;;;;;2.20;1.13;;;6.60;99.90;;;4.80;100.00;100814.44;10458590;27;96591;-86
2023/12/27 06:43:39;;;;;;;2.10;0.50;;;6.60;99.90;;;4.80;100.00;100821.50;10452975;27;96718;-85
2023/12/27 06:48:42;;;;;;;1.27;0.67;;;6.60;99.90;;;4.87;100.00;100827.97;10469068;27;96781;-84
2023/12/27 06:53:46;;;;;;;1.30;0.63;;;6.70;99.90;;;4.97;100.00;100826.31;10466532;27;97017;-84
2023/12/27 06:58:50;;;;;;;5.10;0.87;;;6.70;99.90;;;5.08;100.00;100828.97;10465632;27;97211;-85
2023/12/27 07:03:53;;;;;;;2.50;0.53;;;6.80;99.90;;;5.18;100.00;100828.28;10424924;27;96911;-84
2023/12/27 07:08:56;;;;;;;1.77;0.40;;;6.90;99.90;;;5.24;100.00;100839.19;10449782;27;98229;-84
2023/12/27 07:14:00;;;;;;;3.27;0.90;;;7.00;99.90;;;5.25;100.00;100851.41;10441316;27;97573;-84
2023/12/27 07:19:03;;;;;;;2.90;1.07;;;7.00;99.90;;;5.21;100.00;100870.19;10462152;27;97269;-84
2023/12/27 07:24:07;;;;;;;5.13;1.17;;;7.00;99.90;;;5.24;100.00;100870.81;10475577;27;96749;-84
2023/12/27 07:29:11;;;;;;;1.80;0.80;;;7.00;99.90;;;5.31;100.00;100866.75;10455272;27;96956;-84
2023/12/27 07:34:16;;;;;;;0.60;0.50;;;7.10;99.90;;;5.55;100.00;100866.63;10489350;27;96527;-84
2023/12/27 07:39:19;;;;;;;1.03;0.50;;;7.20;99.90;;;6.02;100.00;100880.56;10459619;27;96726;-85
2023/12/27 07:44:23;;;;;;;1.23;0.60;;;7.50;99.90;;;6.46;95.53;100870.88;10466726;27;96778;-84
2023/12/27 07:49:26;;;;;;;2.27;0.50;;;7.80;99.90;;;6.84;93.68;100872.19;10480505;27;96807;-85
2023/12/27 07:54:31;;;;;;;1.10;0.50;;;8.10;99.90;;;7.42;93.63;100889.25;10468183;27;96684;-86
2023/12/27 07:59:34;;;;;;;3.87;1.73;;;8.40;99.90;;;8.07;89.04;100881.88;10441253;27;98294;-86
2023/12/27 08:04:38;;;;;;;2.57;0.60;;;8.90;99.90;;;8.41;84.30;100884.22;10454982;27;98898;-86
2023/12/27 08:09:42;;;;;;;3.60;0.60;;;9.20;99.90;;;8.71;82.05;100891.22;10449353;27;96856;-86
2023/12/27 08:14:45;;;;;;;4.30;0.80;;;9.50;99.90;;;9.00;77.82;100896.50;10436100;27;98342;-85
2023/12/27 08:19:48;;;;;;;3.17;0.70;;;9.80;99.90;;;9.20;77.32;100911.41;10453915;27;98105;-86
2023/12/27 08:24:52;;;;;;;1.73;0.60;;;10.10;99.90;;;9.33;74.63;100917.25;10480427;27;96429;-86
2023/12/27 08:29:55;;;;;;;1.77;0.60;;;10.20;99.90;;;9.38;74.77;100928.28;10448430;27;96854;-85
2023/12/27 08:35:00;;;;;;;0.97;0.70;;;10.40;99.90;;;9.48;71.60;100938.88;10463993;27;98386;-86
2023/12/27 08:40:05;;;;;;;2.10;0.83;;;10.60;99.10;;;9.54;72.72;100956.06;10466614;27;96822;-86
2023/12/27 08:45:09;;;;;;;1.43;0.67;;;10.60;99.80;;;9.67;72.48;100971.66;10470565;27;97956;-86
2023/12/27 08:50:13;;;;;;;1.97;0.60;;;10.80;99.50;;;9.83;71.54;100970.06;10457340;27;96727;-87
2023/12/27 08:55:17;;;;;;;2.20;0.70;;;11.00;98.20;;;9.73;71.37;100965.78;10460027;27;97918;-86
2023/12/27 09:00:20;;;;;;;2.50;0.80;;;11.00;98.30;;;9.35;72.69;100981.59;10470227;27;96647;-86
2023/12/27 09:05:24;;;;;;;1.63;0.67;;;10.80;98.10;;;9.04;72.76;100994.16;10471058;27;98119;-85
2023/12/27 09:10:27;;;;;;;1.50;0.73;;;10.60;97.60;;;8.91;73.55;101008.66;10453972;27;97937;-84
2023/12/27 09:15:31;;;;;;;1.30;0.60;;;10.50;97.50;;;9.01;73.26;101002.41;10458027;27;98072;-88
2023/12/27 09:20:35;;;;;;;3.53;0.60;;;10.60;97.50;;;9.10;72.09;101006.03;10458649;27;97318;-86
2023/12/27 09:25:39;;;;;;;2.93;0.70;;;10.80;97.10;;;9.08;71.18;101011.47;10437847;27;97820;-87
2023/12/27 09:30:42;;;;;;;1.83;0.93;;;10.70;96.60;;;9.10;72.35;101035.19;10456569;27;96678;-85
2023/12/27 09:35:46;;;;;;;5.53;1.10;;;10.70;97.20;;;9.13;72.66;101015.53;10469154;27;97187;-84
2023/12/27 09:40:49;;;;;;;1.97;0.80;;;10.70;97.00;;;9.11;72.21;101005.88;10460453;27;97823;-85
2023/12/27 09:45:54;;;;;;;1.97;0.70;;;10.80;96.90;;;9.10;72.54;101011.34;10462150;27;96941;-86
2023/12/27 09:51:00;;;;;;;3.47;1.43;;;10.70;96.80;;;9.01;72.50;100994.47;10454885;27;97246;-85
2023/12/27 09:56:04;;;;;;;2.37;0.90;;;10.60;96.60;;;9.00;72.87;100992.78;10450553;27;98143;-87
2023/12/27 10:01:10;;;;;;;6.53;2.27;;;10.60;97.10;;;9.00;72.24;100999.91;10460771;27;96992;-85
2023/12/27 10:06:43;;;;;;;1.73;0.90;;;10.70;96.90;;;9.00;71.38;101003.41;10436086;27;96625;-86
2023/12/27 10:11:47;;;;;;;1.70;0.60;;;10.70;96.90;;;9.06;73.07;101002.84;10465959;27;96583;-86
2023/12/27 10:16:50;;;;;;;3.73;0.60;;;10.70;96.70;;;9.00;72.62;101000.75;10427998;27;98046;-87
2023/12/27 10:21:53;;;;;;;3.97;0.70;;;10.70;96.70;;;8.83;71.46;101007.56;10465697;27;96371;-84
2023/12/27 10:27:00;;;;;;;4.07;0.80;;;10.60;96.40;;;8.68;70.61;101008.91;10457115;27;96616;-85
2023/12/27 10:32:06;;;;;;;2.93;0.83;;;10.40;96.20;;;8.52;71.11;101011.25;10458526;27;96510;-84
2023/12/27 10:37:12;;;;;;;3.17;1.03;;;10.20;96.20;;;8.51;72.87;101020.13;10492741;27;96493;-86
2023/12/27 10:42:17;;;;;;;4.57;0.70;;;10.20;96.50;;;8.47;71.94;101024.88;10462873;27;96557;-86
2023/12/27 10:47:23;;;;;;;4.23;0.67;;;10.20;96.50;;;8.44;70.16;101016.34;10463512;27;96492;-86
2023/12/27 10:52:27;;;;;;;1.03;0.57;;;10.10;96.00;;;8.47;70.51;101014.28;10473234;27;98516;-85
2023/12/27 10:57:32;;;;;;;3.87;0.90;;;10.20;96.30;;;8.72;69.91;101009.47;10472114;27;96568;-86
2023/12/27 11:02:38;;;;;;;2.73;1.00;;;10.40;95.80;;;8.74;69.63;100981.84;10430047;27;96773;-86
2023/12/27 11:07:45;;;;;;;2.00;0.90;;;10.40;95.60;;;8.72;69.91;100954.66;10419746;27;96980;-86
2023/12/27 11:12:50;;;;;;;2.47;1.10;;;10.40;95.70;;;8.73;71.28;100955.50;10459861;27;96770;-86
2023/12/27 11:17:56;;;;;;;4.87;0.90;;;10.40;96.00;;;8.73;69.95;100953.69;10461953;27;96478;-85
2023/12/27 11:23:00;;;;;;;2.77;0.63;;;10.40;95.80;;;8.77;68.76;100944.50;10445322;27;97765;-84
2023/12/27 11:28:04;;;;;;;3.50;0.53;;;10.40;95.40;;;8.83;67.37;100943.94;10453725;27;97132;-86
2023/12/27 11:33:07;;;;;;;2.40;0.70;;;10.50;95.10;;;8.89;65.84;100953.16;10456772;27;96786;-85
2023/12/27 11:38:20;;;;;;;2.77;0.50;;;10.60;94.90;;;8.94;63.72;100952.75;10467719;27;96691;-86
2023/12/27 11:43:46;;;;;;;3.17;0.70;;;10.60;94.40;;;8.94;64.31;100942.13;10444814;27;97033;-86
2023/12/27 11:48:49;;;;;;;0.93;0.50;;;10.60;94.20;;;9.02;64.22;100944.91;10452577;27;97239;-85
2023/12/27 11:53:54;;;;;;;3.70;0.77;;;10.70;93.70;;;9.04;60.92;100941.13;10442841;27;97912;-85
2023/12/27 11:59:01;;;;;;;1.00;0.37;;;10.80;93.20;;;9.13;58.96;100950.09;10449045;27;96650;-85
2023/12/27 12:04:19;;;;;;;1.27;0.40;;;10.80;92.30;;;9.20;58.50;100935.28;10443052;27;96626;-86
2023/12/27 12:09:37;;;;;;;2.70;0.63;;;10.90;91.30;;;9.25;57.84;100938.34;10447341;27;99085;-86
2023/12/27 12:14:40;;;;;;;2.17;0.50;;;11.00;91.50;;;9.32;58.11;100939.47;10447194;27;96708;-84
2023/12/27 12:19:44;;;;;;;2.87;0.53;;;11.00;91.50;;;9.38;60.53;100930.94;10415690;27;97799;-85
2023/12/27 12:24:47;;;;;;;1.57;0.57;;;11.10;91.90;;;9.44;59.43;100924.22;10435389;27;96618;-84
2023/12/27 12:29:53;;;;;;;1.00;0.50;;;11.10;91.70;;;9.44;56.55;100928.69;10420236;27;97362;-84
2023/12/27 12:34:56;;;;;;;2.93;0.60;;;11.10;91.20;;;9.36;58.20;100930.25;10451441;27;97915;-84
2023/12/27 12:40:00;;;;;;;2.63;0.70;;;11.10;91.30;;;9.35;60.05;100933.03;10419556;27;98414;-84
2023/12/27 12:45:05;;;;;;;4.07;1.10;;;11.10;91.60;;;9.37;60.65;100937.22;10433192;27;97018;-84
2023/12/27 12:50:08;;;;;;;8.07;2.87;;;11.10;91.70;;;9.31;58.61;100927.19;10429166;27;96723;-84
2023/12/27 12:55:13;;;;;;;1.40;0.60;;;11.10;91.20;;;9.23;58.25;100924.38;10403612;27;96787;-84
2023/12/27 13:00:23;;;;;;;2.37;0.60;;;11.00;91.10;;;9.05;58.54;100923.41;10424838;27;98061;-84
2023/12/27 13:05:28;;;;;;;2.80;0.80;;;10.90;91.00;;;8.95;59.72;100919.97;10400492;27;96539;-84
2023/12/27 13:10:32;;;;;;;2.10;0.70;;;10.70;91.20;;;8.81;62.27;100913.22;10419629;27;96770;-84
2023/12/27 13:15:35;;;;;;;2.83;1.10;;;10.60;91.60;;;8.67;62.08;100906.53;10408942;27;96993;-84
2023/12/27 13:20:38;;;;;;;3.70;0.97;;;10.50;91.70;;;8.55;64.86;100900.53;10380455;27;96522;-84
2023/12/27 13:25:42;;;;;;;6.63;1.00;;;10.40;92.10;;;8.42;66.53;100912.38;10395114;27;97969;-84
2023/12/27 13:30:46;;;;;;;2.57;0.87;;;10.20;92.50;;;8.34;67.99;100920.97;10377114;27;96750;-83
2023/12/27 13:35:49;;;;;;;5.33;1.93;;;10.20;92.80;;;8.27;68.35;100917.16;10381192;28;96756;-83
2023/12/27 13:40:54;;;;;;;3.10;0.70;;;10.10;93.00;;;8.18;68.35;100910.03;10390609;27;96619;-87
2023/12/27 13:45:57;;;;;;;1.77;0.60;;;10.00;93.10;;;8.09;68.06;100908.19;10397381;27;96487;-84
2023/12/27 13:51:01;;;;;;;2.63;0.80;;;9.90;93.20;;;8.04;68.53;100913.91;10381610;27;96689;-85
2023/12/27 13:56:04;;;;;;;6.37;2.90;;;9.90;93.30;;;7.93;68.71;100919.31;10386409;27;96630;-85
2023/12/27 14:01:08;;;;;;;2.53;0.60;;;9.80;93.30;;;7.86;66.80;100923.47;10372088;27;99313;-86
2023/12/27 14:06:12;;;;;;;7.73;2.67;;;9.70;93.10;;;7.72;67.67;100933.41;10392568;27;96707;-86
2023/12/27 14:11:17;;;;;;;7.50;3.37;;;9.60;93.20;;;7.62;67.82;100934.34;10391092;27;96481;-85
2023/12/27 14:16:21;;;;;;;11.67;3.53;;;9.40;93.30;;;7.47;70.05;100936.47;10445245;27;96598;-86
2023/12/27 14:21:25;;;;;;;31.33;11.53;;;9.30;93.50;;;7.33;70.45;100937.63;10441924;27;96648;-86
2023/12/27 14:26:29;;;;;;;14.43;5.63;;;9.20;93.70;;;7.20;71.32;100939.63;10442365;27;97554;-86
2023/12/27 14:31:32;;;;;;;6.53;2.60;;;9.10;93.80;;;7.10;70.44;100933.41;10443828;27;97115;-86
2023/12/27 14:36:40;;;;;;;9.17;2.90;;;8.90;93.80;;;6.94;72.07;100934.69;10441197;27;97637;-86
2023/12/27 14:41:44;;;;;;;4.97;2.73;;;8.80;94.00;;;6.79;72.79;100940.41;10438509;27;96895;-85
2023/12/27 14:46:48;;;;;;;2.93;1.20;;;8.70;94.10;;;6.68;73.41;100950.03;10441577;27;96640;-85
2023/12/27 14:51:51;;;;;;;3.83;1.90;;;8.60;94.20;;;6.53;74.80;100943.34;10409981;27;96608;-87
2023/12/27 14:56:54;;;;;;;6.10;2.47;;;8.40;94.40;;;6.36;76.03;100952.63;10449535;27;97032;-84
2023/12/27 15:01:58;;;;;;;7.07;3.53;;;8.30;94.50;;;6.14;77.55;100950.00;10434194;27;96822;-83
2023/12/27 15:07:01;;;;;;;7.03;2.20;;;8.10;94.80;;;5.96;79.54;100957.56;10441716;27;96790;-83
2023/12/27 15:12:05;;;;;;;8.20;3.23;;;7.90;95.10;;;5.76;80.99;100961.72;10440348;27;96501;-83
2023/12/27 15:17:09;;;;;;;10.40;4.60;;;7.70;95.40;;;5.57;82.06;100964.06;10449529;27;97757;-84
2023/12/27 15:22:12;;;;;;;9.80;3.87;;;7.50;95.70;;;5.35;83.31;100965.72;10435077;27;96911;-84
2023/12/27 15:27:17;;;;;;;63.93;18.60;;;7.40;95.70;;;5.12;84.69;100963.94;10451466;27;97738;-84
2023/12/27 15:32:24;;;;;;;45.13;16.20;;;7.20;95.90;;;4.88;86.40;100974.50;10425819;27;96973;-83
2023/12/27 15:37:27;;;;;;;24.23;10.10;;;6.90;96.10;;;4.74;87.84;100977.31;10432445;27;96647;-86
2023/12/27 15:42:31;;;;;;;18.93;8.30;;;6.80;96.40;;;4.50;89.10;100967.59;10436663;27;96836;-84
2023/12/27 15:47:35;;;;;;;17.63;7.57;;;6.60;96.60;;;4.33;90.92;100965.31;10440420;27;97699;-88
2023/12/27 15:52:41;;;;;;;8.93;5.50;;;6.40;96.80;;;4.23;92.41;100969.53;10434832;27;98201;-91
2023/12/27 15:57:44;;;;;;;10.20;5.20;;;6.30;97.10;;;4.13;93.84;100961.44;10423274;27;97751;-88
2023/12/27 16:02:48;;;;;;;9.17;4.33;;;6.20;97.50;;;4.00;95.02;100950.94;10436195;27;98082;-88
2023/12/27 16:07:51;;;;;;;8.17;4.50;;;6.10;97.70;;;3.96;96.44;100957.41;10432552;27;96754;-89
2023/12/27 16:12:55;;;;;;;10.60;4.63;;;6.00;98.00;;;3.93;97.85;100960.22;10446750;27;96772;-85
2023/12/27 16:17:59;;;;;;;17.60;4.80;;;5.90;98.30;;;3.98;98.75;100952.88;10427501;27;96789;-85
2023/12/27 16:23:03;;;;;;;10.93;3.57;;;6.00;98.40;;;4.09;98.52;100949.50;10438277;27;100542;-85
2023/12/27 16:28:07;;;;;;;9.53;3.20;;;6.00;98.40;;;4.10;97.94;100942.44;10432974;27;96787;-85
2023/12/27 16:33:11;;;;;;;6.17;3.10;;;6.10;98.50;;;4.06;97.79;100936.53;10435333;27;96602;-86
2023/12/27 16:38:14;;;;;;;16.87;7.83;;;6.00;98.40;;;3.94;98.02;100930.34;10445880;27;96614;-86
2023/12/27 16:43:24;;;;;;;4.77;2.97;;;6.00;98.50;;;3.81;98.26;100947.94;10445414;27;97392;-85
2023/12/27 16:48:28;;;;;;;29.70;9.17;;;5.80;98.70;;;3.66;99.36;100941.13;10432494;27;97269;-86
2023/12/27 16:53:33;;;;;;;21.07;5.77;;;5.70;98.60;;;3.66;99.49;100935.84;10428539;27;97716;-85
2023/12/27 16:58:36;;;;;;;16.00;5.83;;;5.60;98.80;;;3.54;100.00;100934.03;10433870;27;98385;-85
2023/12/27 17:03:39;;;;;;;16.07;6.37;;;5.50;99.10;;;3.36;100.00;100925.63;10433273;27;98131;-85
2023/12/27 17:08:43;;;;;;;12.53;5.63;;;5.40;99.20;;;3.23;100.00;100944.84;10427905;27;97147;-85
2023/12/27 17:13:47;;;;;;;14.40;5.07;;;5.30;99.40;;;3.08;100.00;100955.53;10446874;27;98265;-86
2023/12/27 17:18:51;;;;;;;27.33;9.60;;;5.10;99.40;;;2.93;100.00;100958.22;10431422;27;97363;-86
2023/12/27 17:23:54;;;;;;;23.40;9.63;;;5.00;99.90;;;2.82;100.00;100965.09;10467749;27;96852;-86
2023/12/27 17:28:57;;;;;;;28.57;11.07;;;4.90;99.90;;;2.67;100.00;100961.69;10437280;27;96632;-85
2023/12/27 17:34:01;;;;;;;44.60;17.07;;;4.70;99.90;;;2.53;100.00;100965.22;10444701;27;97912;-86
2023/12/27 17:39:04;;;;;;;29.57;10.90;;;4.60;99.90;;;2.45;100.00;100987.59;10451031;27;96663;-85
2023/12/27 17:44:08;;;;;;;24.97;9.80;;;4.50;99.90;;;2.40;100.00;100980.88;10414145;27;97056;-85
2023/12/27 17:49:12;;;;;;;59.33;14.57;;;4.40;99.90;;;2.39;100.00;100979.19;10430552;27;97092;-85
2023/12/27 17:54:15;;;;;;;25.40;8.23;;;4.40;99.90;;;2.51;100.00;100992.47;10451045;27;96604;-86
2023/12/27 17:59:19;;;;;;;21.90;8.83;;;4.50;99.90;;;2.57;100.00;100992.06;10425672;27;97011;-85
2023/12/27 18:04:23;;;;;;;28.60;12.37;;;4.60;99.90;;;2.62;100.00;100996.09;10459139;27;96937;-86
2023/12/27 18:09:27;;;;;;;33.53;14.30;;;4.60;99.90;;;2.64;100.00;100999.47;10451649;27;96812;-86
2023/12/27 18:14:30;;;;;;;40.43;15.40;;;4.70;99.90;;;2.62;100.00;101005.75;10438843;27;96815;-86
2023/12/27 18:19:38;;;;;;;30.53;13.10;;;4.60;99.90;;;2.54;100.00;101003.63;10448878;27;96845;-86
2023/12/27 18:24:42;;;;;;;35.17;12.43;;;4.50;99.90;;;2.46;100.00;101011.16;10453893;27;97250;-88
2023/12/27 18:29:45;;;;;;;35.37;14.47;;;4.50;99.90;;;2.36;100.00;101000.38;10457816;27;97236;-86
2023/12/27 18:34:50;;;;;;;32.00;13.17;;;4.40;99.90;;;2.27;100.00;100994.84;10427211;27;97208;-86
2023/12/27 18:39:54;;;;;;;38.13;14.50;;;4.30;99.90;;;2.13;100.00;101003.56;10446925;27;96774;-86
2023/12/27 18:44:57;;;;;;;18.27;9.00;;;4.20;99.90;;;2.04;100.00;100993.63;10435144;27;96971;-86
2023/12/27 18:50:01;;;;;;;20.83;9.60;;;4.10;99.90;;;1.94;100.00;100988.13;10447719;27;96701;-86
2023/12/27 18:55:05;;;;;;;22.20;9.33;;;4.00;99.90;;;1.81;100.00;100977.53;10445083;27;97683;-86
2023/12/27 19:00:10;;;;;;;19.83;9.30;;;3.90;99.90;;;1.70;100.00;100974.72;10454744;27;96888;-86
2023/12/27 19:05:13;;;;;;;20.07;8.43;;;3.80;99.90;;;1.60;100.00;100970.97;10435379;27;96692;-85
2023/12/27 19:10:17;;;;;;;16.27;7.40;;;3.70;99.90;;;1.49;100.00;100968.97;10437472;27;97963;-85
2023/12/27 19:15:20;;;;;;;14.67;6.40;;;3.60;99.90;;;1.42;100.00;100979.91;10439888;27;98104;-86
2023/12/27 19:20:23;;;;;;;15.00;7.40;;;3.50;99.90;;;1.33;100.00;100986.53;10440477;27;97847;-85
2023/12/27 19:25:27;;;;;;;28.30;9.83;;;3.40;99.90;;;1.24;100.00;100974.81;10441953;27;97373;-85
2023/12/27 19:30:30;;;;;;;23.13;9.87;;;3.30;99.90;;;1.19;100.00;100984.72;10454315;27;98777;-85
2023/12/27 19:35:34;;;;;;;36.20;11.87;;;3.30;99.90;;;1.11;100.00;100980.84;10449622;27;96871;-84
2023/12/27 19:40:37;;;;;;;24.20;11.10;;;3.20;99.90;;;1.01;100.00;100975.28;10441809;27;97908;-85
2023/12/27 19:45:41;;;;;;;20.67;8.03;;;3.10;99.90;;;0.92;100.00;100979.28;10438794;27;96606;-85
2023/12/27 19:50:45;;;;;;;15.90;6.47;;;3.00;99.90;;;0.87;100.00;100988.34;10445812;27;98921;-86
2023/12/27 19:55:49;;;;;;;16.10;6.53;;;2.90;99.90;;;0.75;100.00;100989.88;10440195;27;96954;-85
2023/12/27 20:00:53;;;;;;;10.47;5.63;;;2.90;99.90;;;0.73;100.00;101005.66;10444519;27;96750;-85
2023/12/27 20:05:56;;;;;;;13.40;5.47;;;2.80;99.90;;;0.73;100.00;101002.19;10452419;27;96942;-85
2023/12/27 20:11:00;;;;;;;10.80;5.23;;;2.80;99.90;;;0.80;100.00;101008.78;10441917;27;96618;-85
2023/12/27 20:16:05;;;;;;;23.00;8.00;;;2.80;99.90;;;0.84;100.00;101007.69;10438103;27;97695;-85
2023/12/27 20:21:08;;;;;;;29.30;10.27;;;2.90;99.90;;;0.83;100.00;101013.81;10443488;27;96732;-84
2023/12/27 20:26:12;;;;;;;69.43;20.70;;;2.90;99.90;;;0.78;100.00;101021.94;10453347;27;98244;-86
2023/12/27 20:31:15;;;;;;;59.27;18.93;;;2.80;99.90;;;0.72;100.00;101016.19;10434298;27;98085;-85
2023/12/27 20:36:20;;;;;;;27.67;11.03;;;2.80;99.90;;;0.64;100.00;101023.63;10448373;27;96929;-85
2023/12/27 20:41:23;;;;;;;21.90;8.40;;;2.70;99.90;;;0.55;100.00;101009.28;10430428;27;98394;-86
2023/12/27 20:46:28;;;;;;;16.20;6.57;;;2.60;99.90;;;0.45;100.00;101014.16;10445107;27;98396;-86
2023/12/27 20:51:35;;;;;;;13.43;6.60;;;2.50;99.90;;;0.36;100.00;101008.56;10444774;27;96611;-85
2023/12/27 20:56:39;;;;;;;12.90;5.47;;;2.40;99.90;;;0.25;100.00;101012.63;10441399;27;96591;-86
2023/12/27 21:01:44;;;;;;;10.63;4.57;;;2.40;99.90;;;0.20;100.00;101008.56;10426407;27;98202;-86
2023/12/27 21:06:48;;;;;;;13.80;4.70;;;2.30;99.90;;;0.14;100.00;101001.91;10429035;27;96951;-84